Time;durP1;ratioP1;P1;durP2;ratioP2;P2;SDS_P1;SDS_P2;PMS_P1;PMS_P2;Temp;Humidity;BMP_temperature;BMP_pressure;BME280_temperature;BME280_humidity;BME280_pressure;Samples;Min_cycle;Max_cycle;Signal;HPM_P1;HPM_P2
2023/04/11 00:01:31;;;;;;;32.53;15.73;;;;;;;11.65;55.44;100092.31;5088196;28;20043;-61
2023/04/11 00:03:57;;;;;;;43.17;16.58;;;;;;;11.77;55.50;100125.81;5073315;28;20123;-62
2023/04/11 00:06:27;;;;;;;36.22;15.32;;;;;;;11.69;55.40;100111.28;5069630;28;20055;-61
2023/04/11 00:08:53;;;;;;;36.97;15.80;;;;;;;11.62;56.14;100118.44;5067360;28;20047;-61
2023/04/11 00:11:19;;;;;;;37.95;16.30;;;;;;;11.35;55.91;100078.53;5088473;28;20040;-61
2023/04/11 00:13:46;;;;;;;35.40;16.27;;;;;;;11.53;56.31;100110.06;5073467;28;20085;-62
2023/04/11 00:16:12;;;;;;;35.50;15.85;;;;;;;11.29;56.50;100080.47;5067891;28;20052;-62
2023/04/11 00:18:38;;;;;;;34.85;15.40;;;;;;;11.38;56.42;100109.66;5079744;28;20032;-61
2023/04/11 00:21:05;;;;;;;42.42;17.15;;;;;;;11.29;56.71;100109.94;5082348;28;20048;-61
2023/04/11 00:23:31;;;;;;;33.55;16.73;;;;;;;11.11;56.76;100094.88;5074564;28;20039;-59
2023/04/11 00:25:57;;;;;;;37.55;16.33;;;;;;;11.19;56.66;100115.47;5089958;28;20059;-62
2023/04/11 00:28:23;;;;;;;32.17;16.02;;;;;;;11.19;56.50;100111.13;5088474;28;20044;-63
2023/04/11 00:30:49;;;;;;;36.53;16.05;;;;;;;11.25;56.54;100118.72;5073901;28;20055;-62
2023/04/11 00:33:15;;;;;;;37.92;16.52;;;;;;;11.28;56.38;100115.19;5080970;28;20171;-62
2023/04/11 00:35:43;;;;;;;30.90;14.95;;;;;;;11.34;56.47;100117.59;5070664;28;20123;-62
2023/04/11 00:38:09;;;;;;;37.72;16.00;;;;;;;11.24;56.00;100105.78;5086438;28;20463;-62
2023/04/11 00:40:34;;;;;;;35.35;15.88;;;;;;;11.33;56.02;100124.56;5070105;28;20109;-62
2023/04/11 00:43:00;;;;;;;35.00;16.02;;;;;;;11.14;56.39;100092.19;5069862;28;20423;-62
2023/04/11 00:45:26;;;;;;;40.28;16.58;;;;;;;11.31;56.17;100121.16;5071551;28;20124;-61
2023/04/11 00:47:52;;;;;;;33.55;15.48;;;;;;;11.02;56.43;100076.94;5081932;28;20101;-61
2023/04/11 00:50:21;;;;;;;31.95;16.15;;;;;;;11.09;56.53;100080.22;5082726;28;20040;-62
2023/04/11 00:52:49;;;;;;;29.88;15.82;;;;;;;11.31;56.21;100128.94;5053830;28;20120;-61
2023/04/11 00:55:15;;;;;;;36.35;16.20;;;;;;;11.30;56.56;100123.81;5085164;28;20531;-58
2023/04/11 00:57:44;;;;;;;35.47;17.67;;;;;;;11.34;56.13;100123.66;5072193;28;20046;-61
2023/04/11 01:00:11;;;;;;;42.00;17.48;;;;;;;11.33;56.57;100119.34;5090208;28;20089;-62
2023/04/11 01:02:41;;;;;;;33.60;16.30;;;;;;;11.34;56.40;100123.66;5091461;28;20415;-61
2023/04/11 01:05:11;;;;;;;31.65;16.40;;;;;;;11.37;56.55;100123.56;5069344;28;20044;-60
2023/04/11 01:07:39;;;;;;;38.17;17.20;;;;;;;11.37;56.82;100127.91;5080062;28;20040;-62
2023/04/11 01:10:06;;;;;;;37.63;16.67;;;;;;;11.32;56.37;100116.78;5069294;28;20060;-62
2023/04/11 01:12:33;;;;;;;45.33;18.10;;;;;;;11.33;56.82;100127.16;5069911;28;20047;-61
2023/04/11 01:14:59;;;;;;;37.72;17.42;;;;;;;11.32;56.68;100124.59;5072063;28;20393;-61
2023/04/11 01:17:24;;;;;;;43.92;17.58;;;;;;;11.26;57.06;100112.63;5088413;28;20047;-60
2023/04/11 01:19:51;;;;;;;34.72;17.83;;;;;;;11.32;57.02;100114.19;5086059;28;20128;-62
2023/04/11 01:22:19;;;;;;;35.58;17.08;;;;;;;11.37;56.79;100120.09;5088157;28;20519;-61
2023/04/11 01:24:45;;;;;;;34.92;17.30;;;;;;;11.21;57.25;100085.03;5055055;28;20184;-62
2023/04/11 01:27:11;;;;;;;32.97;17.55;;;;;;;11.38;56.80;100122.66;5077268;28;20036;-63
2023/04/11 01:29:37;;;;;;;43.70;17.67;;;;;;;11.35;57.26;100111.50;5076213;28;20036;-61
2023/04/11 01:32:03;;;;;;;30.55;16.75;;;;;;;11.36;57.36;100127.06;5087016;28;20043;-61
2023/04/11 01:34:30;;;;;;;33.58;16.83;;;;;;;11.08;57.13;100081.09;5081212;28;20040;-61
2023/04/11 01:36:56;;;;;;;35.35;17.83;;;;;;;11.31;57.28;100120.28;5069934;28;20876;-62
2023/04/11 01:39:22;;;;;;;36.85;18.00;;;;;;;11.29;57.12;100117.75;5077910;28;20029;-63
2023/04/11 01:41:48;;;;;;;40.35;17.90;;;;;;;11.29;57.30;100117.75;5035904;28;20090;-59
2023/04/11 01:44:14;;;;;;;36.75;16.75;;;;;;;11.30;57.79;100118.59;5051941;28;20053;-63
2023/04/11 01:46:42;;;;;;;39.05;17.85;;;;;;;11.30;57.45;100111.66;5081504;28;20052;-61
2023/04/11 01:49:07;;;;;;;32.58;18.27;;;;;;;11.27;57.47;100111.72;5088418;28;20051;-60
2023/04/11 01:51:33;;;;;;;34.80;18.05;;;;;;;11.23;57.61;100104.91;5089307;28;20036;-62
2023/04/11 01:53:59;;;;;;;37.53;18.52;;;;;;;11.19;57.47;100098.09;5065260;28;20044;-61
2023/04/11 01:56:25;;;;;;;36.35;17.85;;;;;;;11.21;57.75;100103.25;5070273;28;20044;-63
2023/04/11 01:58:51;;;;;;;34.38;17.88;;;;;;;11.20;57.46;100107.59;5075420;28;20048;-62
2023/04/11 02:01:20;;;;;;;33.58;18.20;;;;;;;11.01;57.91;100089.09;5063558;28;20360;-61
2023/04/11 02:03:46;;;;;;;37.03;18.98;;;;;;;11.02;57.44;100111.63;5067780;28;20110;-61
2023/04/11 02:06:14;;;;;;;36.05;18.75;;;;;;;10.86;57.06;100086.94;5069764;28;20040;-61
2023/04/11 02:08:40;;;;;;;45.10;21.38;;;;;;;11.03;57.27;100109.88;5082039;28;20538;-63
2023/04/11 02:11:06;;;;;;;41.78;20.23;;;;;;;10.91;57.51;100108.47;5068051;28;20155;-62
2023/04/11 02:13:33;;;;;;;42.67;17.75;;;;;;;10.73;57.94;100110.75;5079823;28;20074;-62
2023/04/11 02:16:13;;;;;;;47.28;17.23;;;;;;;10.56;58.33;100111.22;5070939;28;20424;-62
2023/04/11 02:18:41;;;;;;;35.10;13.93;;;;;;;10.27;57.95;100090.34;5078221;28;20051;-63
2023/04/11 02:21:07;;;;;;;32.10;14.85;;;;;;;10.30;57.53;100114.53;5069381;28;20424;-62
2023/04/11 02:23:33;;;;;;;34.70;16.30;;;;;;;10.06;57.68;100082.19;5088774;28;20055;-63
2023/04/11 02:26:00;;;;;;;30.42;15.50;;;;;;;10.18;57.88;100113.09;5071954;28;20047;-62
2023/04/11 02:28:27;;;;;;;30.05;15.65;;;;;;;10.19;58.39;100101.81;5076831;28;20076;-61
2023/04/11 02:30:54;;;;;;;33.10;14.63;;;;;;;10.16;58.35;100109.66;5087120;28;20064;-62
2023/04/11 02:33:20;;;;;;;34.92;15.90;;;;;;;10.07;58.44;100094.28;5084875;28;20059;-62
2023/04/11 02:35:46;;;;;;;35.17;15.98;;;;;;;10.14;58.91;100105.38;5073582;28;20075;-62
2023/04/11 02:38:13;;;;;;;34.35;16.90;;;;;;;10.07;59.08;100099.47;5076333;28;20423;-61
2023/04/11 02:40:39;;;;;;;30.55;15.13;;;;;;;10.05;59.62;100121.19;5073061;28;20052;-62
2023/04/11 02:43:06;;;;;;;34.45;16.38;;;;;;;10.02;59.89;100114.34;5067905;28;20079;-61
2023/04/11 02:45:32;;;;;;;37.03;15.77;;;;;;;9.93;60.51;100116.31;5079015;28;20072;-61
2023/04/11 02:47:59;;;;;;;29.58;16.45;;;;;;;9.96;60.32;100108.44;5068050;28;20039;-61
2023/04/11 02:50:26;;;;;;;35.78;16.63;;;;;;;9.90;60.57;100096.44;5071467;28;20515;-62
2023/04/11 02:52:53;;;;;;;33.05;15.93;;;;;;;10.00;60.73;100113.50;5088362;28;20423;-62
2023/04/11 02:55:23;;;;;;;31.70;16.67;;;;;;;10.09;60.38;100107.25;5075692;28;20041;-61
2023/04/11 02:57:50;;;;;;;38.75;15.95;;;;;;;10.22;60.64;100100.84;5051571;28;20044;-61
2023/04/11 03:00:19;;;;;;;30.80;16.20;;;;;;;10.30;61.00;100106.72;5087886;28;20715;-61
2023/04/11 03:02:49;;;;;;;35.13;16.10;;;;;;;10.26;60.46;100086.06;5087982;28;20050;-62
2023/04/11 03:05:19;;;;;;;29.15;15.02;;;;;;;10.37;60.99;100112.59;5079072;28;20047;-61
2023/04/11 03:07:48;;;;;;;21.70;13.05;;;;;;;10.25;61.49;100118.97;5068248;28;20074;-62
2023/04/11 03:10:14;;;;;;;25.73;14.15;;;;;;;10.26;61.45;100120.66;5060714;28;20040;-62
2023/04/11 03:12:40;;;;;;;27.48;13.88;;;;;;;10.27;62.03;100113.72;5070260;28;20046;-64
2023/04/11 03:15:09;;;;;;;21.77;13.02;;;;;;;10.34;61.45;100110.09;5081134;28;20036;-62
2023/04/11 03:17:35;;;;;;;20.30;11.95;;;;;;;10.24;61.74;100086.09;5073253;28;20059;-60
2023/04/11 03:20:06;;;;;;;23.85;12.65;;;;;;;10.36;61.92;100111.75;5086051;28;20040;-62
2023/04/11 03:22:33;;;;;;;21.17;11.85;;;;;;;10.42;61.71;100111.56;5087499;28;20089;-62
2023/04/11 03:24:59;;;;;;;18.33;10.65;;;;;;;10.37;61.92;100108.25;5081377;28;20054;-62
2023/04/11 03:27:25;;;;;;;20.75;11.82;;;;;;;10.43;61.44;100100.28;5075736;28;20048;-61
2023/04/11 03:29:57;;;;;;;20.08;12.27;;;;;;;10.57;61.82;100102.53;5086458;28;20503;-62
2023/04/11 03:32:30;;;;;;;19.42;10.73;;;;;;;10.68;61.51;100107.44;5065962;28;20044;-63
2023/04/11 03:34:59;;;;;;;19.05;10.88;;;;;;;10.67;61.45;100100.53;5084564;28;20071;-61
2023/04/11 03:37:25;;;;;;;18.75;11.52;;;;;;;10.63;61.23;100091.94;5080371;28;20085;-63
2023/04/11 03:39:50;;;;;;;15.98;10.73;;;;;;;10.73;61.01;100103.78;5082279;28;20044;-61
2023/04/11 03:42:17;;;;;;;16.17;10.32;;;;;;;10.50;61.11;100067.19;5050521;28;20040;-63
2023/04/11 03:44:45;;;;;;;19.65;10.95;;;;;;;10.52;60.97;100062.81;5066948;28;20135;-62
2023/04/11 03:47:11;;;;;;;21.70;12.40;;;;;;;10.66;60.84;100065.84;5033313;28;20409;-62
2023/04/11 03:49:41;;;;;;;22.88;11.85;;;;;;;10.87;61.48;100087.78;5066806;28;20083;-62
2023/04/11 03:52:08;;;;;;;18.40;11.52;;;;;;;10.71;61.61;100050.97;5067236;28;20127;-61
2023/04/11 03:54:36;;;;;;;17.20;11.43;;;;;;;10.90;61.75;100069.47;5066663;28;20040;-62
2023/04/11 03:57:03;;;;;;;20.85;10.80;;;;;;;10.79;62.46;100054.19;5064737;28;20059;-61
2023/04/11 03:59:32;;;;;;;20.73;11.63;;;;;;;10.95;62.23;100073.66;5071239;28;20051;-61
2023/04/11 04:02:02;;;;;;;17.63;11.15;;;;;;;10.92;62.74;100073.75;5075345;28;20137;-62
2023/04/11 04:04:31;;;;;;;19.08;12.57;;;;;;;10.93;63.03;100074.63;5091606;28;20044;-61
2023/04/11 04:07:09;;;;;;;21.67;12.38;;;;;;;10.89;63.11;100086.84;5072281;28;20071;-60
2023/04/11 04:09:40;;;;;;;22.15;11.45;;;;;;;10.89;63.05;100084.22;5067830;28;20044;-63
2023/04/11 04:12:06;;;;;;;24.35;11.85;;;;;;;10.88;63.26;100079.97;5083182;28;20043;-63
2023/04/11 04:15:01;;;;;;;16.63;11.82;;;;;;;10.87;63.03;100080.00;5090905;28;20048;-62
2023/04/11 04:17:29;;;;;;;21.08;12.77;;;;;;;10.94;62.76;100091.91;5055431;28;20043;-63
2023/04/11 04:19:55;;;;;;;18.55;11.75;;;;;;;11.01;62.29;100093.44;5088039;28;20074;-63
2023/04/11 04:22:22;;;;;;;23.33;12.43;;;;;;;11.10;62.11;100087.94;5088338;28;20095;-61
2023/04/11 04:24:56;;;;;;;21.77;12.93;;;;;;;11.09;61.84;100070.66;5070910;28;20364;-62
2023/04/11 04:27:26;;;;;;;20.38;12.45;;;;;;;11.16;61.62;100063.50;5054682;28;20072;-60
2023/04/11 04:29:55;;;;;;;19.67;12.20;;;;;;;11.37;61.35;100091.47;5070684;28;20131;-62
2023/04/11 04:32:23;;;;;;;17.63;11.43;;;;;;;11.40;61.33;100086.19;5104271;28;20039;-60
2023/04/11 04:34:56;;;;;;;21.52;12.45;;;;;;;11.51;61.34;100098.88;5076504;28;20039;-62
2023/04/11 04:37:29;;;;;;;21.35;13.27;;;;;;;11.43;60.54;100070.47;5089844;28;20040;-62
2023/04/11 04:40:19;;;;;;;20.35;12.80;;;;;;;11.56;60.94;100090.00;5089392;28;20487;-61
2023/04/11 04:43:00;;;;;;;23.63;16.00;;;;;;;11.54;60.73;100084.00;5075006;28;20126;-62
2023/04/11 04:45:39;;;;;;;28.70;16.67;;;;;;;11.42;60.03;100066.13;5069711;28;20527;-62
2023/04/11 04:48:06;;;;;;;23.73;15.07;;;;;;;11.61;60.39;100085.50;5088293;28;20047;-63
2023/04/11 04:50:32;;;;;;;30.50;16.30;;;;;;;11.69;59.56;100083.50;5090318;28;20051;-62
2023/04/11 04:52:57;;;;;;;24.77;15.18;;;;;;;11.65;60.07;100062.81;5070979;28;20068;-62
2023/04/11 04:55:23;;;;;;;24.60;14.73;;;;;;;11.72;59.72;100048.69;5070161;28;20378;-62
2023/04/11 04:57:50;;;;;;;25.30;14.02;;;;;;;11.93;59.38;100092.31;5072109;28;20130;-61
2023/04/11 05:00:17;;;;;;;24.02;14.20;;;;;;;12.02;59.51;100078.97;5071786;28;20056;-62
2023/04/11 05:02:44;;;;;;;22.88;14.38;;;;;;;11.80;59.42;100034.53;5085703;28;20036;-64
2023/04/11 05:05:12;;;;;;;23.73;13.43;;;;;;;11.99;58.81;100057.34;5078084;28;20127;-61
2023/04/11 05:07:39;;;;;;;19.70;13.05;;;;;;;12.12;58.96;100077.75;5054891;28;20048;-60
2023/04/11 05:10:06;;;;;;;22.40;14.10;;;;;;;12.25;59.25;100072.94;5083425;28;20127;-58
2023/04/11 05:12:33;;;;;;;25.88;15.07;;;;;;;12.41;58.87;100068.03;5060498;28;20040;-63
2023/04/11 05:15:10;;;;;;;33.67;16.83;;;;;;;12.39;58.09;100049.00;5089426;28;20035;-61
2023/04/11 05:17:36;;;;;;;27.52;17.27;;;;;;;12.50;58.30;100065.97;5089601;28;20424;-62
2023/04/11 05:20:04;;;;;;;25.38;16.60;;;;;;;12.47;57.91;100052.16;5071785;28;20070;-62
2023/04/11 05:22:31;;;;;;;25.33;16.45;;;;;;;12.61;57.37;100065.59;5053894;28;20160;-62
2023/04/11 05:24:57;;;;;;;29.58;16.23;;;;;;;12.62;57.17;100054.22;5051267;28;20048;-62
2023/04/11 05:27:23;;;;;;;32.30;17.35;;;;;;;12.73;57.28;100062.50;5067567;28;20041;-62
2023/04/11 05:29:49;;;;;;;32.17;17.58;;;;;;;12.82;57.08;100063.94;5067755;28;20047;-62
2023/04/11 05:32:17;;;;;;;30.80;17.05;;;;;;;12.71;56.70;100038.25;5067694;28;20044;-63
2023/04/11 05:34:52;;;;;;;38.08;19.05;;;;;;;12.93;56.71;100061.75;5068201;28;20518;-61
2023/04/11 05:37:23;;;;;;;;;;;;;;;12.99;56.34;100064.13;5069572;28;20143;-61
2023/04/11 05:39:51;;;;;;;27.60;17.15;;;;;;;12.93;56.38;100057.38;5091105;28;19959;-51
2023/04/11 05:42:17;;;;;;;32.85;18.98;;;;;;;13.04;56.46;100057.81;5096656;28;20516;-55
2023/04/11 05:44:43;;;;;;;33.45;17.77;;;;;;;13.04;56.00;100051.75;5089560;28;20055;-49
2023/04/11 05:47:10;;;;;;;30.00;18.05;;;;;;;13.15;55.42;100062.66;5088916;28;20039;-49
2023/04/11 05:49:37;;;;;;;29.15;16.60;;;;;;;13.18;55.30;100043.44;5072391;28;20044;-47
2023/04/11 05:52:04;;;;;;;30.73;17.85;;;;;;;13.46;55.20;100054.47;5080579;28;20424;-50
2023/04/11 05:54:31;;;;;;;26.52;16.60;;;;;;;13.44;54.24;100023.22;5088592;28;20044;-50
2023/04/11 05:56:57;;;;;;;25.58;17.52;;;;;;;13.62;53.93;100026.81;5089028;28;20032;-54
2023/04/11 05:59:23;;;;;;;23.75;16.67;;;;;;;13.79;53.53;100050.50;5085277;28;20043;-54
2023/04/11 06:01:50;;;;;;;28.65;17.02;;;;;;;13.89;53.04;100050.97;5066630;28;20120;-57
2023/04/11 06:04:16;;;;;;;26.05;16.70;;;;;;;14.24;52.43;100050.28;5087006;28;20496;-57
2023/04/11 06:06:42;;;;;;;25.77;16.13;;;;;;;14.73;51.15;100048.16;5067851;28;20043;-51
2023/04/11 06:09:09;;;;;;;27.73;16.75;;;;;;;15.06;50.33;100051.84;5076214;28;20063;-53
2023/04/11 06:11:35;;;;;;;24.58;15.55;;;;;;;15.30;48.90;100018.38;5089052;28;20131;-51
2023/04/11 06:14:01;;;;;;;26.15;15.88;;;;;;;16.23;47.58;100050.44;5088040;28;20051;-54
2023/04/11 06:16:28;;;;;;;27.27;14.55;;;;;;;17.09;46.16;100047.59;5086305;28;20123;-53
2023/04/11 06:19:03;;;;;;;26.60;16.33;;;;;;;17.74;44.39;100046.56;5079681;28;20055;-54
2023/04/11 06:21:32;;;;;;;19.17;14.15;;;;;;;18.04;42.74;100004.44;5065468;28;20052;-52
2023/04/11 06:24:07;;;;;;;20.23;14.65;;;;;;;18.74;41.15;100014.16;5080041;28;20032;-56
2023/04/11 06:26:33;;;;;;;18.90;15.05;;;;;;;19.54;40.04;100037.13;5068163;28;20100;-51
2023/04/11 06:29:02;;;;;;;23.45;14.75;;;;;;;20.45;38.33;100049.47;5071958;28;20040;-50
2023/04/11 06:31:28;;;;;;;23.70;15.43;;;;;;;21.08;37.08;100049.34;5086232;28;20135;-47
2023/04/11 06:33:54;;;;;;;21.80;16.02;;;;;;;21.67;36.10;100048.63;5079253;28;20143;-50
2023/04/11 06:36:20;;;;;;;21.30;14.75;;;;;;;22.19;35.03;100049.03;5078916;28;20089;-49
2023/04/11 06:38:46;;;;;;;23.45;14.98;;;;;;;22.68;34.09;100040.78;5081020;28;20049;-54
2023/04/11 06:41:12;;;;;;;22.27;15.73;;;;;;;23.09;32.91;100026.06;5085923;28;20035;-53
2023/04/11 06:43:38;;;;;;;22.90;15.20;;;;;;;23.72;31.95;100043.88;5084415;28;20081;-48
2023/04/11 06:46:06;;;;;;;22.50;15.52;;;;;;;23.37;31.42;100025.53;5082610;28;20035;-56
2023/04/11 06:48:33;;;;;;;23.50;15.60;;;;;;;22.01;32.98;100044.31;5081695;28;20050;-48
2023/04/11 06:50:58;;;;;;;27.77;16.10;;;;;;;21.10;33.76;100025.44;5086834;28;20056;-53
2023/04/11 06:53:25;;;;;;;21.67;15.85;;;;;;;20.60;34.91;100036.97;5078136;28;20079;-51
2023/04/11 06:55:51;;;;;;;27.60;14.45;;;;;;;20.25;35.60;100042.03;5085094;28;20554;-52
2023/04/11 06:58:17;;;;;;;23.90;14.60;;;;;;;20.43;35.39;100003.81;5049827;28;20044;-57
2023/04/11 07:00:42;;;;;;;29.42;16.35;;;;;;;20.48;35.68;100025.47;5085352;28;20044;-52
2023/04/11 07:03:08;;;;;;;31.08;15.45;;;;;;;21.68;34.27;100034.41;5086228;28;20055;-54
2023/04/11 07:05:35;;;;;;;22.77;15.70;;;;;;;22.76;32.59;100034.94;5077629;28;20051;-55
2023/04/11 07:08:01;;;;;;;22.13;15.25;;;;;;;22.57;32.09;100016.94;5076850;28;20499;-52
2023/04/11 07:10:27;;;;;;;22.77;15.38;;;;;;;22.90;31.41;100024.06;5076207;28;20167;-54
2023/04/11 07:12:54;;;;;;;21.27;15.27;;;;;;;22.37;31.73;100029.09;5080501;28;20213;-53
2023/04/11 07:15:20;;;;;;;22.08;15.63;;;;;;;21.69;32.47;100028.16;5066253;28;20148;-52
2023/04/11 07:17:47;;;;;;;20.08;15.40;;;;;;;21.11;33.42;100029.78;5085925;28;20043;-51
2023/04/11 07:20:13;;;;;;;25.77;15.82;;;;;;;21.73;32.91;100004.00;5083523;28;20116;-53
2023/04/11 07:22:42;;;;;;;29.05;16.58;;;;;;;23.71;30.59;99997.03;5076160;28;20047;-50
2023/04/11 07:25:09;;;;;;;25.45;16.25;;;;;;;25.59;28.78;100022.25;5082948;28;20041;-54
2023/04/11 07:27:35;;;;;;;22.58;16.15;;;;;;;26.54;27.30;99997.22;5070155;28;20467;-50
2023/04/11 07:30:02;;;;;;;21.80;15.68;;;;;;;27.64;26.34;100019.34;5071698;28;21734;-55
2023/04/11 07:32:30;;;;;;;18.40;15.63;;;;;;;28.32;25.25;100014.22;5068938;28;20453;-53
2023/04/11 07:34:55;;;;;;;19.95;16.27;;;;;;;27.99;25.20;100005.13;5075477;28;20056;-54
2023/04/11 07:37:21;;;;;;;26.00;15.63;;;;;;;27.72;25.15;100010.59;5077661;28;20047;-52
2023/04/11 07:39:47;;;;;;;16.85;14.73;;;;;;;28.19;23.77;100001.28;5068161;28;20036;-49
2023/04/11 07:42:14;;;;;;;20.33;14.73;;;;;;;29.38;22.76;100010.16;5052052;28;20050;-52
2023/04/11 07:44:40;;;;;;;19.85;15.45;;;;;;;29.47;22.15;100003.81;5069709;28;20056;-53
2023/04/11 07:47:05;;;;;;;17.77;14.20;;;;;;;29.29;21.53;100003.09;5073976;28;20471;-53
2023/04/11 07:49:31;;;;;;;14.27;12.60;;;;;;;27.31;22.10;99994.16;5067158;28;20121;-55
2023/04/11 07:51:57;;;;;;;16.88;13.80;;;;;;;24.59;24.26;100008.09;5069440;28;20122;-55
2023/04/11 07:54:24;;;;;;;22.48;14.65;;;;;;;23.31;26.08;100007.44;5069399;28;20039;-56
2023/04/11 07:56:50;;;;;;;20.55;14.10;;;;;;;23.12;26.66;100005.47;5071524;28;20123;-53
2023/04/11 07:59:16;;;;;;;20.75;13.82;;;;;;;24.32;25.63;99973.28;5074205;28;20606;-53
2023/04/11 08:01:42;;;;;;;18.35;13.45;;;;;;;24.31;25.17;99999.00;5072642;28;20207;-53
2023/04/11 08:04:08;;;;;;;19.92;14.25;;;;;;;23.64;25.91;99991.44;5075747;28;20040;-53
2023/04/11 08:06:34;;;;;;;19.77;14.38;;;;;;;23.41;26.14;99986.28;5074784;28;20126;-56
2023/04/11 08:09:00;;;;;;;21.95;14.45;;;;;;;21.97;27.71;99980.16;5069811;28;20047;-50
2023/04/11 08:11:26;;;;;;;19.73;15.45;;;;;;;21.12;28.64;99958.28;5072581;28;20048;-53
2023/04/11 08:13:52;;;;;;;18.40;14.15;;;;;;;21.64;28.56;99972.94;5057510;28;20050;-55
2023/04/11 08:16:18;;;;;;;19.73;14.45;;;;;;;22.82;27.26;99965.47;5073217;28;20055;-64
2023/04/11 08:18:44;;;;;;;20.35;13.75;;;;;;;23.97;25.79;99973.63;5070952;28;20415;-62
2023/04/11 08:21:10;;;;;;;18.10;14.23;;;;;;;23.84;25.54;99949.06;5069584;28;20040;-62
2023/04/11 08:23:38;;;;;;;18.73;13.68;;;;;;;23.73;25.64;99970.38;5074217;28;20462;-62
2023/04/11 08:26:06;;;;;;;21.63;13.88;;;;;;;22.43;26.77;99958.03;5079505;28;20086;-64
2023/04/11 08:28:31;;;;;;;18.00;13.60;;;;;;;21.85;27.52;99965.19;5074619;28;20105;-63
2023/04/11 08:31:01;;;;;;;20.73;15.13;;;;;;;21.09;28.25;99944.44;5075126;28;20048;-63
2023/04/11 08:33:27;;;;;;;19.15;14.10;;;;;;;20.22;29.25;99921.59;5068900;28;20044;-62
2023/04/11 08:35:53;;;;;;;18.80;13.38;;;;;;;19.87;29.91;99947.81;5066671;28;20044;-61
2023/04/11 08:38:19;;;;;;;17.20;13.93;;;;;;;20.50;29.18;99946.97;5086587;28;20048;-62
2023/04/11 08:40:45;;;;;;;19.08;13.40;;;;;;;21.11;28.66;99956.56;5087295;28;20431;-63
2023/04/11 08:43:12;;;;;;;20.50;13.65;;;;;;;21.24;28.21;99945.97;5072117;28;20098;-63
2023/04/11 08:45:38;;;;;;;21.15;13.43;;;;;;;21.25;28.51;99941.53;5066742;28;20044;-64
2023/04/11 08:48:05;;;;;;;19.25;14.00;;;;;;;21.40;27.96;99941.25;5070875;28;20512;-63
2023/04/11 08:50:33;;;;;;;19.92;13.63;;;;;;;21.37;27.84;99944.09;5069368;28;20052;-63
2023/04/11 08:53:01;;;;;;;18.38;13.82;;;;;;;20.73;28.14;99943.50;5070261;28;20093;-63
2023/04/11 08:55:28;;;;;;;17.67;13.00;;;;;;;20.53;28.43;99940.59;5070953;28;20047;-63
2023/04/11 08:57:57;;;;;;;20.77;15.20;;;;;;;20.46;28.52;99944.66;5069409;28;20052;-64
2023/04/11 09:00:24;;;;;;;20.38;13.73;;;;;;;20.29;28.60;99938.72;5071100;28;20076;-62
2023/04/11 09:03:01;;;;;;;22.67;14.20;;;;;;;20.16;28.68;99927.31;5070288;28;20119;-63
2023/04/11 09:05:29;;;;;;;20.02;13.18;;;;;;;20.40;28.36;99929.22;5069076;28;20151;-62
2023/04/11 09:07:57;;;;;;;20.35;13.45;;;;;;;21.31;27.58;99930.47;5088432;28;20032;-62
2023/04/11 09:10:24;;;;;;;17.05;11.68;;;;;;;23.12;25.75;99938.31;5089850;28;20047;-61
2023/04/11 09:12:50;;;;;;;14.63;11.43;;;;;;;24.55;23.22;99916.25;5081402;28;20040;-63
2023/04/11 09:15:21;;;;;;;18.35;11.52;;;;;;;24.30;23.22;99922.91;5086222;28;20040;-64
2023/04/11 09:17:48;;;;;;;25.55;13.52;;;;;;;24.87;22.75;99908.94;5070559;28;20032;-65
2023/04/11 09:20:25;;;;;;;19.58;12.95;;;;;;;25.92;21.86;99919.69;5088311;28;20043;-64
2023/04/11 09:22:52;;;;;;;14.68;11.80;;;;;;;27.22;20.78;99893.59;5082439;28;20606;-62
2023/04/11 09:25:20;;;;;;;18.27;12.32;;;;;;;27.64;20.21;99917.81;5068773;28;20044;-62
2023/04/11 09:27:46;;;;;;;15.48;12.85;;;;;;;26.86;20.55;99927.41;5070360;28;20074;-64
2023/04/11 09:30:23;;;;;;;15.32;12.43;;;;;;;26.90;20.45;99906.66;5069177;28;20044;-63
2023/04/11 09:32:51;;;;;;;16.73;13.50;;;;;;;28.13;19.69;99908.31;5068539;28;20508;-64
2023/04/11 09:35:27;;;;;;;27.85;15.23;;;;;;;29.69;18.66;99890.56;5068437;28;20135;-63
2023/04/11 09:37:54;;;;;;;16.05;12.95;;;;;;;31.77;17.38;99900.56;5086383;28;20170;-65
2023/04/11 09:40:24;;;;;;;20.83;12.68;;;;;;;32.09;16.66;99905.59;5055058;28;20044;-64
2023/04/11 09:42:58;;;;;;;18.60;13.68;;;;;;;31.80;16.49;99892.13;5068176;28;20508;-62
2023/04/11 09:45:25;;;;;;;15.77;13.57;;;;;;;31.12;16.61;99893.88;5070240;28;20143;-62
2023/04/11 09:47:53;;;;;;;16.17;13.23;;;;;;;30.96;16.63;99890.44;5043667;28;20056;-63
2023/04/11 09:50:19;;;;;;;21.20;14.45;;;;;;;32.27;16.11;99881.03;5090314;28;20507;-63
2023/04/11 09:52:45;;;;;;;17.13;14.02;;;;;;;32.35;16.04;99870.13;5072106;28;20435;-63
2023/04/11 09:55:15;;;;;;;14.15;12.20;;;;;;;30.09;16.80;99883.50;5070161;28;20048;-62
2023/04/11 09:57:45;;;;;;;15.05;11.57;;;;;;;28.99;17.66;99874.19;5051184;28;20093;-61
2023/04/11 10:00:17;;;;;;;18.75;12.40;;;;;;;30.73;16.93;99869.78;5069928;28;20057;-61
2023/04/11 10:02:45;;;;;;;17.13;13.23;;;;;;;32.58;15.97;99867.31;5068281;28;20040;-62
2023/04/11 10:05:12;;;;;;;19.92;12.68;;;;;;;33.48;14.90;99843.38;5069323;28;20063;-63
2023/04/11 10:08:03;;;;;;;15.77;12.80;;;;;;;32.58;15.04;99843.09;5068031;28;20071;-62
2023/04/11 10:10:29;;;;;;;14.77;12.95;;;;;;;33.33;14.78;99856.09;5068194;28;20044;-64
2023/04/11 10:12:55;;;;;;;17.05;12.27;;;;;;;33.56;14.54;99851.28;5069091;28;20538;-62
2023/04/11 10:15:21;;;;;;;15.38;12.57;;;;;;;31.56;15.07;99850.19;5067453;28;20106;-62
2023/04/11 10:18:09;;;;;;;18.88;12.30;;;;;;;29.89;15.84;99843.66;5069295;28;20046;-62
2023/04/11 10:20:48;;;;;;;16.77;11.70;;;;;;;29.54;16.57;99832.50;5069220;28;20036;-63
2023/04/11 10:23:15;;;;;;;17.13;12.13;;;;;;;28.34;17.42;99832.19;5051641;28;20504;-64
2023/04/11 10:26:01;;;;;;;17.42;12.13;;;;;;;28.81;17.62;99825.28;5067502;28;20075;-63
2023/04/11 10:28:31;;;;;;;14.20;11.57;;;;;;;31.07;15.97;99841.72;5067044;28;20103;-62
2023/04/11 10:31:08;;;;;;;13.38;11.52;;;;;;;31.05;15.76;99809.66;5067797;28;20044;-65
2023/04/11 10:33:36;;;;;;;14.87;12.77;;;;;;;29.99;16.17;99829.22;5080758;28;20086;-63
2023/04/11 10:36:09;;;;;;;14.45;11.25;;;;;;;27.84;17.82;99821.44;5086995;28;20036;-64
2023/04/11 10:38:46;;;;;;;14.27;11.73;;;;;;;28.58;17.53;99818.84;5072503;28;20051;-62
2023/04/11 10:41:21;;;;;;;15.00;11.85;;;;;;;28.00;18.00;99808.97;5068880;28;20131;-63
2023/04/11 10:43:47;;;;;;;13.75;12.00;;;;;;;28.67;17.69;99819.72;5050161;28;20053;-62
2023/04/11 10:46:21;;;;;;;15.88;12.25;;;;;;;28.40;17.72;99812.81;5068721;28;20044;-61
2023/04/11 10:49:01;;;;;;;16.67;12.30;;;;;;;27.17;18.68;99793.59;5068302;28;20067;-62
2023/04/11 10:51:28;;;;;;;13.68;11.45;;;;;;;25.44;20.28;99800.78;5050845;28;20098;-63
2023/04/11 10:53:58;;;;;;;27.15;12.98;;;;;;;23.84;21.78;99782.59;5068170;28;20040;-63
2023/04/11 10:56:39;;;;;;;13.60;11.85;;;;;;;25.01;21.12;99797.81;5067200;28;20083;-60
2023/04/11 10:59:05;;;;;;;18.13;12.13;;;;;;;27.54;19.13;99769.31;5068125;28;20036;-62
2023/04/11 11:01:31;;;;;;;12.98;11.27;;;;;;;29.22;18.11;99787.78;5067206;28;20048;-63
2023/04/11 11:03:57;;;;;;;18.98;11.45;;;;;;;30.44;16.97;99789.06;5049787;28;20052;-61
2023/04/11 11:06:25;;;;;;;14.75;10.75;;;;;;;31.87;16.29;99772.03;5068269;28;20416;-66
2023/04/11 11:08:51;;;;;;;13.32;10.32;;;;;;;31.56;15.89;99764.16;5033266;28;20071;-62
2023/04/11 11:11:18;;;;;;;16.10;11.38;;;;;;;32.45;15.36;99767.59;5068247;28;20036;-66
2023/04/11 11:13:54;;;;;;;12.90;11.18;;;;;;;33.60;14.60;99779.78;5066793;28;20044;-62
2023/04/11 11:16:25;;;;;;;12.18;10.02;;;;;;;33.43;14.51;99771.16;5067801;28;20106;-61